Time;durP1;ratioP1;P1;durP2;ratioP2;P2;SDS_P1;SDS_P2;PMS_P1;PMS_P2;Temp;Humidity;BMP_temperature;BMP_pressure;BME280_temperature;BME280_humidity;BME280_pressure;Samples;Min_cycle;Max_cycle;Signal;HPM_P1;HPM_P2
2021/01/05 00:00:15;;;;;;;17.25;13.45;;;2.90;90.80;;;;;;5058376;28;20392;-84
2021/01/05 00:02:41;;;;;;;16.85;13.45;;;2.90;90.90;;;;;;5093070;28;20024;-83
2021/01/05 00:05:07;;;;;;;17.30;13.55;;;2.90;90.90;;;;;;5057275;28;20089;-84
2021/01/05 00:07:33;;;;;;;17.35;13.25;;;3.00;90.90;;;;;;5075949;28;20026;-84
2021/01/05 00:09:59;;;;;;;18.13;13.57;;;2.90;90.90;;;;;;5074546;28;20032;-83
2021/01/05 00:12:24;;;;;;;16.70;12.27;;;2.90;90.90;;;;;;5055124;28;20504;-83
2021/01/05 00:14:50;;;;;;;16.83;13.05;;;3.00;90.90;;;;;;5090572;28;20019;-84
2021/01/05 00:17:18;;;;;;;19.23;13.82;;;3.00;90.90;;;;;;5075852;28;20016;-84
2021/01/05 00:19:48;;;;;;;19.35;14.32;;;3.00;90.90;;;;;;5075505;28;20048;-83
2021/01/05 00:22:14;;;;;;;16.58;13.15;;;3.00;90.90;;;;;;5075637;28;20519;-83
2021/01/05 00:24:40;;;;;;;19.95;15.55;;;3.00;90.90;;;;;;5075447;28;20039;-82
2021/01/05 00:27:06;;;;;;;18.27;14.10;;;3.00;90.80;;;;;;5075878;28;20028;-84
2021/01/05 00:29:32;;;;;;;17.23;13.70;;;3.00;90.80;;;;;;5075693;28;20028;-83
2021/01/05 00:32:07;;;;;;;20.27;14.90;;;3.00;90.80;;;;;;5075834;28;20107;-83
2021/01/05 00:34:33;;;;;;;19.20;14.85;;;3.00;90.90;;;;;;5075760;28;20123;-84
2021/01/05 00:36:59;;;;;;;17.83;13.93;;;3.00;90.80;;;;;;5093853;28;20032;-83
2021/01/05 00:39:25;;;;;;;19.42;15.07;;;3.00;90.80;;;;;;5093912;28;20035;-84
2021/01/05 00:41:50;;;;;;;19.83;15.20;;;3.00;90.80;;;;;;5093506;28;20020;-84
2021/01/05 00:44:16;;;;;;;21.42;16.25;;;3.00;90.80;;;;;;5058905;28;20032;-83
2021/01/05 00:46:42;;;;;;;19.00;14.50;;;3.00;90.80;;;;;;5075738;28;20028;-83
2021/01/05 00:49:07;;;;;;;20.08;14.70;;;3.00;90.70;;;;;;5075317;28;20036;-84
2021/01/05 00:51:33;;;;;;;18.55;13.98;;;3.00;90.80;;;;;;5093691;28;20447;-84
2021/01/05 00:53:58;;;;;;;19.13;14.55;;;3.00;90.80;;;;;;5059082;28;20077;-83
2021/01/05 00:56:24;;;;;;;19.27;14.68;;;3.00;90.80;;;;;;5055310;28;20107;-84
2021/01/05 00:58:50;;;;;;;20.40;15.20;;;3.00;90.80;;;;;;5055391;28;20036;-84
2021/01/05 01:01:18;;;;;;;17.90;13.57;;;3.00;90.80;;;;;;5068898;28;20108;-84
2021/01/05 01:03:44;;;;;;;18.70;14.35;;;3.00;90.80;;;;;;5075161;28;20036;-83
2021/01/05 01:06:09;;;;;;;22.92;15.85;;;3.00;90.80;;;;;;5058755;28;20093;-84
2021/01/05 01:08:35;;;;;;;19.88;15.45;;;3.00;90.80;;;;;;5041736;28;20052;-83
2021/01/05 01:11:00;;;;;;;21.25;15.43;;;3.00;90.70;;;;;;5058453;28;20047;-84
2021/01/05 01:13:27;;;;;;;18.33;14.35;;;3.00;90.70;;;;;;5058544;28;20079;-84
2021/01/05 01:15:53;;;;;;;19.08;14.77;;;3.00;90.70;;;;;;5075424;28;20044;-84
2021/01/05 01:18:18;;;;;;;22.90;14.95;;;3.00;90.70;;;;;;5058594;28;20048;-84
2021/01/05 01:20:44;;;;;;;17.85;14.48;;;3.00;90.80;;;;;;5074637;28;20048;-84
2021/01/05 01:23:10;;;;;;;18.55;14.32;;;3.00;90.80;;;;;;5092801;28;20527;-84
2021/01/05 01:25:35;;;;;;;17.38;14.20;;;3.10;90.70;;;;;;5038500;28;20035;-84
2021/01/05 01:28:01;;;;;;;21.73;15.38;;;3.10;90.80;;;;;;5094569;28;20029;-84
2021/01/05 01:30:26;;;;;;;19.02;14.32;;;3.10;90.70;;;;;;5089593;28;20039;-84
2021/01/05 01:32:52;;;;;;;20.88;14.02;;;3.10;90.70;;;;;;5045290;28;20448;-84
2021/01/05 01:35:18;;;;;;;18.80;14.57;;;3.10;90.70;;;;;;5078783;28;20035;-83
2021/01/05 01:37:43;;;;;;;20.77;15.52;;;3.10;90.80;;;;;;5078845;28;20056;-84
2021/01/05 01:40:10;;;;;;;19.17;15.15;;;3.10;90.70;;;;;;5078210;28;20029;-84
2021/01/05 01:42:36;;;;;;;18.30;14.35;;;3.00;90.60;;;;;;5097080;28;20024;-84
2021/01/05 01:45:04;;;;;;;22.77;14.98;;;3.10;90.70;;;;;;5061981;28;20105;-85
2021/01/05 01:47:37;;;;;;;25.75;15.32;;;3.10;90.70;;;;;;5078623;28;20042;-84
2021/01/05 01:50:14;;;;;;;22.95;16.08;;;3.10;90.70;;;;;;5096759;28;20024;-84
2021/01/05 01:53:03;;;;;;;22.13;15.68;;;3.10;90.70;;;;;;5078525;28;20141;-84
2021/01/05 01:55:59;;;;;;;21.30;14.80;;;3.10;90.80;;;;;;5077966;28;20012;-84
2021/01/05 01:58:39;;;;;;;22.75;16.85;;;3.10;90.80;;;;;;5072083;28;20047;-84
2021/01/05 02:01:33;;;;;;;20.42;15.73;;;3.10;90.70;;;;;;5096079;28;20031;-84
2021/01/05 02:04:31;;;;;;;22.40;16.27;;;3.00;90.70;;;;;;5078169;28;20032;-84
2021/01/05 02:07:22;;;;;;;20.58;15.20;;;3.00;90.70;;;;;;5077968;28;20016;-84
2021/01/05 02:09:59;;;;;;;21.65;15.48;;;3.00;90.70;;;;;;5075891;28;20033;-84
2021/01/05 02:12:55;;;;;;;21.17;15.38;;;3.00;90.70;;;;;;5063372;28;20099;-84
2021/01/05 02:15:26;;;;;;;20.50;15.68;;;3.00;90.70;;;;;;5096430;28;20024;-83
2021/01/05 02:18:30;;;;;;;21.90;16.42;;;3.00;90.60;;;;;;5096304;28;20020;-84
2021/01/05 02:21:11;;;;;;;21.38;15.23;;;3.00;90.70;;;;;;5075976;28;20067;-84
2021/01/05 02:24:03;;;;;;;21.85;16.30;;;3.00;90.70;;;;;;5076402;28;20020;-84
2021/01/05 02:26:50;;;;;;;23.67;16.92;;;3.00;90.60;;;;;;5058133;28;20028;-83
2021/01/05 02:29:26;;;;;;;20.77;15.32;;;3.00;90.90;;;;;;5057640;28;20024;-81
2021/01/05 02:32:01;;;;;;;22.45;15.88;;;3.00;90.90;;;;;;5075720;28;20017;-81
2021/01/05 02:34:41;;;;;;;21.83;15.50;;;3.00;90.70;;;;;;5075807;28;20070;-81
2021/01/05 02:37:25;;;;;;;21.77;15.60;;;3.00;90.60;;;;;;5075603;28;20430;-81
2021/01/05 02:40:13;;;;;;;21.30;15.15;;;3.00;90.60;;;;;;5075299;28;20079;-81
2021/01/05 02:42:48;;;;;;;21.92;16.25;;;3.00;90.70;;;;;;5061055;28;20051;-80
2021/01/05 02:45:22;;;;;;;22.70;16.23;;;3.00;90.60;;;;;;5077439;28;20040;-81
2021/01/05 02:48:01;;;;;;;25.67;16.95;;;3.00;90.60;;;;;;5077537;28;20024;-81
2021/01/05 02:51:14;;;;;;;24.90;17.88;;;3.00;90.60;;;;;;5095517;28;20112;-81
2021/01/05 02:53:58;;;;;;;26.77;17.70;;;3.00;90.60;;;;;;5032166;28;20062;-82
2021/01/05 02:56:42;;;;;;;24.40;17.55;;;3.00;90.60;;;;;;5077147;28;20016;-82
2021/01/05 02:59:23;;;;;;;26.15;17.25;;;3.00;90.50;;;;;;5095309;28;20030;-82
2021/01/05 03:02:16;;;;;;;24.20;15.82;;;3.00;90.50;;;;;;5077254;28;20034;-81
2021/01/05 03:04:42;;;;;;;24.10;16.77;;;3.00;90.50;;;;;;5095186;28;20063;-81
2021/01/05 03:07:16;;;;;;;23.00;15.43;;;3.00;90.50;;;;;;5060271;28;20036;-81
2021/01/05 03:09:42;;;;;;;22.48;16.20;;;3.00;90.50;;;;;;5076810;28;20032;-81
2021/01/05 03:12:25;;;;;;;23.10;16.70;;;3.00;90.50;;;;;;5077032;28;20023;-81
2021/01/05 03:14:57;;;;;;;24.40;16.58;;;3.00;90.50;;;;;;5074682;28;20029;-81
2021/01/05 03:17:34;;;;;;;25.52;17.73;;;3.00;90.50;;;;;;5057203;28;20056;-81
2021/01/05 03:20:26;;;;;;;24.13;17.08;;;3.00;90.50;;;;;;5063869;28;20052;-81
2021/01/05 03:23:05;;;;;;;24.52;15.93;;;3.00;90.50;;;;;;5076614;28;20024;-81
2021/01/05 03:25:34;;;;;;;25.90;17.77;;;3.00;90.50;;;;;;5094901;28;20468;-81
2021/01/05 03:28:03;;;;;;;25.00;17.50;;;3.00;90.50;;;;;;5076630;28;20063;-81
2021/01/05 03:30:39;;;;;;;24.95;16.00;;;3.00;90.60;;;;;;5076418;28;20024;-81
2021/01/05 03:33:05;;;;;;;23.95;16.75;;;3.00;90.60;;;;;;5094709;28;20035;-81
2021/01/05 03:35:31;;;;;;;25.10;17.73;;;3.00;90.70;;;;;;5076556;28;20016;-81
2021/01/05 03:37:58;;;;;;;25.45;17.35;;;3.00;90.60;;;;;;5076339;28;20028;-81
2021/01/05 03:40:24;;;;;;;27.80;17.38;;;3.00;90.70;;;;;;5094461;28;20031;-82
2021/01/05 03:42:50;;;;;;;28.55;18.15;;;3.00;90.70;;;;;;5076284;28;20051;-81
2021/01/05 03:45:24;;;;;;;27.98;19.30;;;3.00;90.70;;;;;;5076330;28;20028;-81
2021/01/05 03:47:50;;;;;;;28.33;18.55;;;3.10;90.80;;;;;;5075955;28;20039;-81
2021/01/05 03:50:17;;;;;;;29.02;19.20;;;3.00;90.80;;;;;;5094128;28;20396;-80
2021/01/05 03:52:43;;;;;;;28.65;18.55;;;3.00;90.80;;;;;;5075698;28;20091;-81
2021/01/05 03:55:10;;;;;;;30.80;19.88;;;3.10;90.90;;;;;;5094364;28;20097;-81
2021/01/05 03:57:35;;;;;;;27.35;18.38;;;3.00;90.90;;;;;;5094086;28;20028;-81
2021/01/05 04:00:03;;;;;;;29.23;20.50;;;3.10;90.90;;;;;;5076266;28;20047;-81
2021/01/05 04:02:28;;;;;;;29.25;20.05;;;3.10;90.90;;;;;;5076051;28;20114;-80
2021/01/05 04:04:54;;;;;;;28.95;18.88;;;3.10;91.00;;;;;;5093948;28;20452;-81
2021/01/05 04:07:19;;;;;;;29.80;19.65;;;3.00;91.00;;;;;;5076022;28;20020;-81
2021/01/05 04:09:45;;;;;;;28.95;19.35;;;3.00;91.00;;;;;;5058654;28;20430;-81
2021/01/05 04:12:11;;;;;;;29.63;19.58;;;3.00;91.00;;;;;;5059110;28;20085;-81
2021/01/05 04:14:36;;;;;;;29.05;18.85;;;3.00;91.00;;;;;;5038553;28;20419;-82
2021/01/05 04:17:02;;;;;;;28.17;19.20;;;3.10;91.00;;;;;;5074835;28;20077;-81
2021/01/05 04:19:28;;;;;;;29.80;19.30;;;3.00;91.00;;;;;;5075380;28;20056;-82
2021/01/05 04:21:53;;;;;;;28.30;19.20;;;3.00;91.00;;;;;;5075585;28;20040;-82
2021/01/05 04:24:19;;;;;;;26.60;18.25;;;3.00;91.00;;;;;;5075976;28;20028;-82
2021/01/05 04:26:45;;;;;;;28.40;19.15;;;3.10;91.00;;;;;;5075177;28;20443;-82
2021/01/05 04:29:12;;;;;;;29.02;19.38;;;3.10;91.00;;;;;;5075365;28;20028;-82
2021/01/05 04:31:43;;;;;;;28.58;19.77;;;3.10;91.00;;;;;;5075619;28;20193;-82
2021/01/05 04:34:09;;;;;;;33.80;21.25;;;3.10;91.00;;;;;;5075315;28;20024;-82
2021/01/05 04:36:35;;;;;;;31.58;20.10;;;3.10;91.00;;;;;;5075658;28;20032;-82
2021/01/05 04:39:02;;;;;;;28.40;19.40;;;3.10;90.90;;;;;;5058763;28;20035;-82
2021/01/05 04:41:31;;;;;;;32.35;20.15;;;3.10;91.00;;;;;;5058779;28;20028;-82
2021/01/05 04:44:00;;;;;;;30.17;19.83;;;3.10;91.00;;;;;;5075462;28;20024;-82
2021/01/05 04:46:49;;;;;;;35.20;21.23;;;3.10;91.20;;;;;;5093422;28;20035;-82
2021/01/05 04:49:43;;;;;;;28.45;17.92;;;3.10;91.00;;;;;;5075285;28;20025;-82
2021/01/05 04:52:12;;;;;;;30.80;20.00;;;3.00;91.00;;;;;;5075299;28;20027;-82
2021/01/05 04:54:53;;;;;;;30.73;19.70;;;3.00;91.00;;;;;;5093284;28;20020;-82
2021/01/05 04:57:19;;;;;;;28.42;18.42;;;3.10;91.10;;;;;;5075413;28;20031;-82
2021/01/05 04:59:52;;;;;;;33.65;20.00;;;3.10;91.10;;;;;;5075272;28;20024;-81
2021/01/05 05:02:29;;;;;;;30.17;20.25;;;3.10;91.10;;;;;;5059049;28;20036;-82
2021/01/05 05:05:34;;;;;;;32.88;21.92;;;3.10;91.10;;;;;;5077443;28;20128;-81
2021/01/05 05:08:22;;;;;;;28.42;18.92;;;3.10;91.10;;;;;;5097470;28;20476;-81
2021/01/05 05:10:47;;;;;;;29.73;18.67;;;3.10;91.10;;;;;;5079013;28;20032;-82
2021/01/05 05:13:44;;;;;;;32.72;20.65;;;3.10;91.10;;;;;;5079193;28;20032;-82
2021/01/05 05:16:28;;;;;;;29.58;18.98;;;3.10;91.10;;;;;;5078950;28;20047;-82
2021/01/05 05:19:18;;;;;;;30.65;19.85;;;3.10;91.10;;;;;;5097119;28;20040;-81
2021/01/05 05:22:02;;;;;;;32.10;19.88;;;3.10;91.10;;;;;;5058999;28;20508;-81
2021/01/05 05:24:27;;;;;;;36.20;20.67;;;3.10;91.10;;;;;;5079905;28;20377;-81
2021/01/05 05:27:08;;;;;;;33.28;21.00;;;3.10;91.00;;;;;;5078831;28;20020;-82
2021/01/05 05:29:54;;;;;;;34.42;21.33;;;3.00;91.10;;;;;;5078096;28;20024;-81
2021/01/05 05:32:29;;;;;;;33.28;20.90;;;3.00;91.10;;;;;;5079097;28;20024;-83
2021/01/05 05:35:18;;;;;;;32.22;20.38;;;3.00;91.10;;;;;;5078889;28;20082;-84
2021/01/05 05:37:47;;;;;;;;;;;3.00;91.10;;;;;;5097794;28;20104;-84
2021/01/05 05:40:36;;;;;;;31.63;18.52;;;3.00;91.00;;;;;;5097281;28;19939;-84
2021/01/05 05:43:29;;;;;;;30.55;19.58;;;3.00;91.10;;;;;;5079067;28;20162;-83
2021/01/05 05:46:07;;;;;;;35.03;19.48;;;3.00;91.10;;;;;;5078713;28;20082;-84
2021/01/05 05:48:38;;;;;;;31.58;19.52;;;3.00;91.10;;;;;;5096916;28;20024;-83
2021/01/05 05:51:17;;;;;;;29.48;18.67;;;3.10;91.10;;;;;;5078528;28;20024;-84
2021/01/05 05:54:13;;;;;;;29.00;18.73;;;3.10;91.10;;;;;;5096688;28;20016;-84
2021/01/05 05:56:57;;;;;;;32.75;20.75;;;3.10;91.10;;;;;;5096502;28;20024;-84
2021/01/05 05:59:43;;;;;;;29.63;19.30;;;3.10;91.10;;;;;;5096643;28;20493;-84
2021/01/05 06:02:17;;;;;;;32.50;20.45;;;3.10;91.10;;;;;;5071009;28;20032;-84
2021/01/05 06:04:43;;;;;;;31.10;19.48;;;3.10;91.00;;;;;;5078259;28;20066;-83
2021/01/05 06:07:09;;;;;;;32.22;19.85;;;3.10;90.90;;;;;;5096535;28;20032;-84
2021/01/05 06:09:35;;;;;;;27.75;18.30;;;3.10;90.90;;;;;;5078406;28;20028;-84
2021/01/05 06:12:01;;;;;;;31.02;19.63;;;3.10;91.00;;;;;;5061857;28;20392;-84
2021/01/05 06:14:26;;;;;;;32.45;20.05;;;3.10;91.00;;;;;;5078438;28;20093;-84
2021/01/05 06:16:52;;;;;;;29.25;18.50;;;3.10;91.00;;;;;;5061771;28;20028;-85
2021/01/05 06:19:18;;;;;;;31.30;21.23;;;3.10;91.00;;;;;;5078610;28;20048;-86
2021/01/05 06:21:46;;;;;;;34.92;20.45;;;3.10;91.00;;;;;;5062233;28;20032;-85
2021/01/05 06:24:12;;;;;;;32.03;19.67;;;3.10;91.00;;;;;;5079671;28;20032;-85
2021/01/05 06:26:38;;;;;;;34.53;21.48;;;3.10;91.00;;;;;;5078655;28;20392;-85
2021/01/05 06:29:03;;;;;;;34.10;20.33;;;3.10;91.00;;;;;;5078432;28;20488;-85
2021/01/05 06:31:29;;;;;;;37.13;22.52;;;3.10;91.00;;;;;;5061911;28;20081;-85
2021/01/05 06:33:55;;;;;;;41.55;22.80;;;3.10;91.00;;;;;;5078671;28;20476;-85
2021/01/05 06:36:20;;;;;;;35.92;21.83;;;3.10;91.00;;;;;;5078606;28;20487;-86
2021/01/05 06:38:47;;;;;;;41.03;22.33;;;3.10;91.00;;;;;;5045299;28;20495;-85
2021/01/05 06:41:12;;;;;;;39.63;23.17;;;3.10;91.10;;;;;;5045414;28;20370;-86
2021/01/05 06:43:38;;;;;;;39.60;22.95;;;3.10;91.10;;;;;;5045004;28;20035;-86
2021/01/05 06:46:04;;;;;;;37.38;22.50;;;3.10;91.10;;;;;;5061770;28;20024;-86
2021/01/05 06:48:29;;;;;;;38.58;22.85;;;3.10;91.10;;;;;;5096169;28;20032;-85
2021/01/05 06:50:55;;;;;;;37.55;22.65;;;3.10;91.10;;;;;;5041430;28;20040;-85
2021/01/05 06:53:20;;;;;;;34.70;20.85;;;3.10;91.10;;;;;;5074963;28;20488;-84
2021/01/05 06:55:46;;;;;;;37.40;21.20;;;3.10;91.20;;;;;;5094226;28;20037;-84
2021/01/05 06:58:12;;;;;;;38.17;21.33;;;3.10;91.20;;;;;;5061212;28;20074;-84
2021/01/05 07:00:37;;;;;;;36.08;21.80;;;3.10;91.10;;;;;;5077900;28;20042;-84
2021/01/05 07:03:03;;;;;;;38.17;22.00;;;3.10;91.10;;;;;;5060972;28;20035;-84
2021/01/05 07:05:29;;;;;;;39.33;21.95;;;3.10;91.10;;;;;;5095614;28;20392;-84
2021/01/05 07:07:54;;;;;;;42.75;22.25;;;3.10;91.10;;;;;;5060920;28;20043;-84
2021/01/05 07:10:21;;;;;;;39.72;22.27;;;3.10;91.10;;;;;;5060882;28;20085;-84
2021/01/05 07:12:48;;;;;;;38.33;22.65;;;3.10;91.10;;;;;;5077010;28;20047;-81
2021/01/05 07:15:16;;;;;;;38.35;22.17;;;3.10;91.10;;;;;;5094953;28;20081;-81
2021/01/05 07:17:41;;;;;;;36.47;21.90;;;3.10;91.10;;;;;;5076613;28;20077;-81
2021/01/05 07:20:09;;;;;;;40.63;22.85;;;3.10;91.10;;;;;;5060110;28;20052;-81
2021/01/05 07:22:35;;;;;;;35.70;21.27;;;3.20;91.10;;;;;;5076899;28;20115;-82
2021/01/05 07:25:01;;;;;;;44.42;24.20;;;3.20;91.10;;;;;;5076745;28;20031;-81
2021/01/05 07:27:27;;;;;;;38.20;21.60;;;3.10;91.10;;;;;;5042958;28;20028;-81
2021/01/05 07:29:53;;;;;;;40.38;21.13;;;3.20;91.10;;;;;;5076445;28;20032;-81
2021/01/05 07:32:19;;;;;;;42.08;23.58;;;3.20;91.10;;;;;;5076546;28;20054;-81
2021/01/05 07:34:45;;;;;;;40.03;23.65;;;3.20;91.10;;;;;;5076488;28;20084;-81
2021/01/05 07:37:16;;;;;;;43.88;24.98;;;3.20;91.20;;;;;;5076512;28;20032;-81
2021/01/05 07:39:41;;;;;;;38.35;22.17;;;3.20;91.10;;;;;;5075927;28;20032;-81
2021/01/05 07:42:20;;;;;;;45.90;24.88;;;3.20;91.10;;;;;;5059616;28;20032;-81
2021/01/05 07:44:48;;;;;;;45.22;22.83;;;3.20;91.20;;;;;;5076729;28;20016;-82
2021/01/05 07:47:15;;;;;;;43.63;23.67;;;3.20;91.20;;;;;;5075842;28;20078;-81
2021/01/05 07:49:43;;;;;;;39.05;23.13;;;3.20;91.20;;;;;;5059724;28;20028;-81
2021/01/05 07:52:22;;;;;;;43.05;22.25;;;3.20;91.20;;;;;;5094349;28;20095;-82
2021/01/05 07:54:48;;;;;;;;;;;3.20;91.50;;;;;;5095130;28;20031;-82
2021/01/05 07:57:14;;;;;;;38.15;22.48;;;3.20;91.20;;;;;;5094181;28;19904;-81
2021/01/05 07:59:40;;;;;;;43.35;23.02;;;3.10;91.20;;;;;;5059768;28;20105;-82
2021/01/05 08:02:09;;;;;;;38.58;21.48;;;3.20;91.30;;;;;;5075866;28;20028;-81
2021/01/05 08:04:36;;;;;;;35.58;20.70;;;3.20;91.20;;;;;;5076160;28;20380;-82
2021/01/05 08:07:01;;;;;;;35.25;20.23;;;3.20;91.20;;;;;;5075940;28;20024;-80
2021/01/05 08:09:27;;;;;;;42.53;21.92;;;3.20;91.20;;;;;;5094069;28;20028;-81
2021/01/05 08:11:53;;;;;;;37.08;22.30;;;3.20;91.20;;;;;;5042632;28;20046;-81
2021/01/05 08:14:18;;;;;;;42.75;24.95;;;3.20;91.20;;;;;;5075968;28;20028;-80
2021/01/05 08:16:48;;;;;;;46.50;26.55;;;3.30;91.40;;;;;;5059179;28;20528;-80
2021/01/05 08:19:14;;;;;;;40.70;24.05;;;3.20;91.10;;;;;;5058982;28;20062;-81
2021/01/05 08:21:39;;;;;;;39.78;22.30;;;3.20;91.10;;;;;;5038353;28;20032;-81
2021/01/05 08:24:05;;;;;;;43.35;22.40;;;3.20;91.10;;;;;;5072221;28;20118;-80
2021/01/05 08:26:31;;;;;;;38.78;21.23;;;3.20;91.10;;;;;;5074696;28;20480;-81
2021/01/05 08:28:58;;;;;;;38.40;21.45;;;3.30;91.20;;;;;;5074863;28;20043;-81
2021/01/05 08:31:31;;;;;;;38.90;22.05;;;3.30;91.20;;;;;;5058487;28;20510;-81
2021/01/05 08:33:57;;;;;;;44.08;24.33;;;3.30;91.20;;;;;;5075020;28;20037;-81
2021/01/05 08:36:30;;;;;;;38.97;23.15;;;3.30;91.10;;;;;;5058699;28;20162;-81
2021/01/05 08:38:57;;;;;;;41.20;23.27;;;3.30;91.10;;;;;;5073676;28;20507;-80
2021/01/05 08:41:23;;;;;;;40.90;21.17;;;3.30;91.10;;;;;;5075190;28;20035;-81
2021/01/05 08:43:49;;;;;;;41.58;22.95;;;3.30;91.00;;;;;;5074969;28;20036;-81
2021/01/05 08:46:22;;;;;;;41.13;22.83;;;3.30;91.00;;;;;;5057991;28;20035;-81
2021/01/05 08:48:48;;;;;;;43.67;23.10;;;3.30;91.10;;;;;;5074984;28;20043;-81
2021/01/05 08:51:18;;;;;;;41.13;20.63;;;3.30;91.00;;;;;;5074677;28;20480;-81
2021/01/05 08:53:45;;;;;;;47.25;25.75;;;3.30;91.00;;;;;;5058624;28;20498;-81
2021/01/05 08:56:18;;;;;;;93.60;43.13;;;3.30;91.00;;;;;;5058175;28;20037;-82
2021/01/05 08:58:44;;;;;;;119.15;51.00;;;3.30;91.00;;;;;;5074538;28;20031;-82
2021/01/05 09:01:10;;;;;;;64.15;31.38;;;3.30;91.00;;;;;;5075096;28;20389;-82
2021/01/05 09:03:35;;;;;;;49.92;27.13;;;3.30;91.00;;;;;;5075059;28;20032;-82
2021/01/05 09:06:01;;;;;;;45.28;25.00;;;3.30;91.00;;;;;;5075256;28;20126;-82
2021/01/05 09:08:30;;;;;;;38.75;21.75;;;3.30;91.00;;;;;;5074886;28;20062;-83
2021/01/05 09:11:00;;;;;;;41.03;21.55;;;3.30;91.00;;;;;;5075016;28;20051;-82
2021/01/05 09:13:26;;;;;;;42.47;22.00;;;3.30;91.00;;;;;;5058974;28;20039;-82
2021/01/05 09:15:53;;;;;;;39.35;21.13;;;3.30;91.00;;;;;;5075199;28;20024;-83
2021/01/05 09:18:19;;;;;;;42.58;23.88;;;3.30;91.00;;;;;;5058620;28;20111;-83
2021/01/05 09:20:52;;;;;;;34.40;20.80;;;3.30;90.90;;;;;;5074844;28;20097;-82
2021/01/05 09:23:24;;;;;;;39.25;21.58;;;3.40;90.90;;;;;;5075199;28;20032;-83
2021/01/05 09:25:54;;;;;;;38.08;21.83;;;3.40;91.20;;;;;;5093280;28;20031;-82
2021/01/05 09:28:21;;;;;;;38.30;20.95;;;3.40;90.90;;;;;;5093153;28;20051;-82
2021/01/05 09:30:51;;;;;;;45.13;22.77;;;3.40;90.80;;;;;;5074909;28;20396;-82
2021/01/05 09:33:18;;;;;;;41.92;22.23;;;3.40;90.70;;;;;;5074970;28;20108;-83
2021/01/05 09:35:44;;;;;;;38.08;20.67;;;3.40;90.70;;;;;;5074807;28;20122;-82
2021/01/05 09:38:10;;;;;;;38.33;19.70;;;3.40;90.70;;;;;;5075372;28;20528;-82
2021/01/05 09:40:41;;;;;;;36.00;20.85;;;3.50;90.70;;;;;;5058594;28;20481;-83
2021/01/05 09:43:09;;;;;;;44.78;22.05;;;3.50;90.70;;;;;;5074934;28;20060;-82
2021/01/05 09:45:35;;;;;;;37.38;20.38;;;3.50;90.60;;;;;;5074970;28;20028;-82
2021/01/05 09:48:09;;;;;;;38.35;20.35;;;3.50;90.60;;;;;;5038207;28;20036;-83
2021/01/05 09:50:35;;;;;;;36.90;20.25;;;3.50;90.60;;;;;;5056186;28;20021;-82
2021/01/05 09:53:02;;;;;;;32.45;18.90;;;3.50;90.50;;;;;;5041987;28;20169;-82
2021/01/05 09:55:28;;;;;;;40.40;19.25;;;3.50;90.60;;;;;;5042050;28;20029;-83
2021/01/05 09:57:54;;;;;;;40.38;20.25;;;3.50;90.60;;;;;;5045367;28;20020;-82
2021/01/05 10:00:21;;;;;;;38.92;20.23;;;3.50;90.60;;;;;;5078481;28;20466;-83
2021/01/05 10:02:47;;;;;;;40.40;21.05;;;3.50;90.50;;;;;;5096553;28;20024;-83
2021/01/05 10:05:13;;;;;;;33.35;19.35;;;3.50;90.50;;;;;;5061769;28;20043;-83
2021/01/05 10:07:39;;;;;;;38.95;20.30;;;3.50;90.50;;;;;;5061685;28;20032;-83
2021/01/05 10:10:05;;;;;;;35.55;20.27;;;3.50;90.50;;;;;;5078232;28;20032;-83
2021/01/05 10:12:31;;;;;;;32.95;19.80;;;3.50;90.50;;;;;;5078059;28;20056;-83
2021/01/05 10:14:57;;;;;;;32.28;19.40;;;3.50;90.60;;;;;;5078250;28;20024;-82
2021/01/05 10:17:22;;;;;;;32.53;18.23;;;3.60;90.60;;;;;;5061504;28;20241;-83
2021/01/05 10:19:48;;;;;;;29.88;17.33;;;3.60;90.50;;;;;;5060833;28;20513;-82
2021/01/05 10:22:13;;;;;;;29.83;18.40;;;3.60;90.60;;;;;;5061442;28;20024;-83
2021/01/05 10:24:39;;;;;;;30.90;18.13;;;3.60;90.60;;;;;;5061463;28;20024;-83
2021/01/05 10:27:05;;;;;;;34.33;18.70;;;3.60;90.60;;;;;;5044546;28;20036;-82
2021/01/05 10:29:30;;;;;;;39.90;21.63;;;3.60;90.50;;;;;;5061193;28;20032;-82
2021/01/05 10:31:56;;;;;;;33.15;19.48;;;3.60;90.30;;;;;;5061136;28;20077;-82
2021/01/05 10:34:24;;;;;;;34.67;19.50;;;3.60;90.60;;;;;;5095835;28;20032;-83
2021/01/05 10:36:57;;;;;;;32.70;19.63;;;3.60;90.40;;;;;;5095694;28;20457;-83
2021/01/05 10:39:25;;;;;;;30.73;19.25;;;3.60;90.40;;;;;;5077413;28;20077;-82
2021/01/05 10:41:51;;;;;;;31.50;17.98;;;3.60;90.30;;;;;;5077582;28;20081;-83
2021/01/05 10:44:18;;;;;;;36.17;20.10;;;3.60;90.40;;;;;;5060799;28;20032;-83
2021/01/05 10:46:44;;;;;;;37.60;21.83;;;3.60;90.40;;;;;;5076920;28;20024;-83
2021/01/05 10:49:13;;;;;;;37.90;21.38;;;3.70;90.40;;;;;;5061015;28;20081;-80
2021/01/05 10:51:47;;;;;;;37.63;19.95;;;3.70;90.40;;;;;;5077517;28;20491;-81
2021/01/05 10:54:15;;;;;;;33.13;19.30;;;3.70;90.40;;;;;;5095599;28;20032;-81
2021/01/05 10:56:40;;;;;;;36.00;20.55;;;3.70;90.30;;;;;;5095518;28;20094;-81
2021/01/05 10:59:06;;;;;;;34.40;19.48;;;3.70;90.20;;;;;;5044096;28;20480;-81
2021/01/05 11:01:31;;;;;;;33.15;18.75;;;3.70;90.30;;;;;;5059757;28;20385;-81
2021/01/05 11:03:57;;;;;;;32.45;18.85;;;3.70;90.30;;;;;;5095104;28;20056;-80
2021/01/05 11:06:22;;;;;;;31.98;18.02;;;3.70;90.30;;;;;;5076953;28;20115;-81
2021/01/05 11:08:48;;;;;;;31.08;17.60;;;3.70;90.30;;;;;;5043715;28;20020;-81
2021/01/05 11:11:16;;;;;;;31.05;18.08;;;3.70;90.30;;;;;;5060161;28;20388;-79
2021/01/05 11:13:42;;;;;;;33.33;18.25;;;3.70;90.30;;;;;;5095059;28;20020;-81
2021/01/05 11:16:08;;;;;;;34.63;19.08;;;3.70;90.30;;;;;;5060023;28;20504;-81
2021/01/05 11:18:33;;;;;;;32.13;17.45;;;3.70;90.30;;;;;;5060172;28;20157;-81
2021/01/05 11:20:59;;;;;;;29.90;17.73;;;3.70;90.40;;;;;;5059803;28;20063;-81
2021/01/05 11:23:24;;;;;;;31.80;18.20;;;3.70;90.30;;;;;;5060109;28;20555;-84
2021/01/05 11:25:50;;;;;;;35.90;19.65;;;3.70;90.40;;;;;;5060032;28;20021;-81
2021/01/05 11:28:16;;;;;;;33.50;19.27;;;3.70;90.30;;;;;;5059872;28;20036;-81
2021/01/05 11:30:41;;;;;;;31.45;18.77;;;3.70;90.30;;;;;;5060949;28;20098;-80
2021/01/05 11:33:07;;;;;;;34.10;20.10;;;3.70;90.20;;;;;;5059888;28;20429;-82
2021/01/05 11:35:33;;;;;;;39.45;21.48;;;3.60;90.20;;;;;;5059697;28;20400;-83
2021/01/05 11:37:59;;;;;;;41.05;22.45;;;3.70;90.30;;;;;;5075846;28;20020;-82
2021/01/05 11:40:25;;;;;;;41.88;21.95;;;3.70;90.30;;;;;;5062369;28;20387;-81
2021/01/05 11:42:51;;;;;;;40.08;21.23;;;3.60;90.30;;;;;;5096889;28;20479;-82
2021/01/05 11:45:17;;;;;;;42.45;23.52;;;3.60;90.30;;;;;;5097232;28;20066;-84
2021/01/05 11:47:43;;;;;;;46.92;23.95;;;3.70;90.50;;;;;;5082878;28;20112;-84
2021/01/05 11:50:10;;;;;;;42.78;22.50;;;3.80;90.40;;;;;;5076596;28;20114;-84
2021/01/05 11:52:37;;;;;;;38.33;21.50;;;3.90;90.40;;;;;;5076374;28;20024;-84
2021/01/05 11:55:05;;;;;;;39.72;20.15;;;4.00;90.10;;;;;;5094408;28;20495;-84
2021/01/05 11:57:30;;;;;;;41.50;20.40;;;3.90;90.00;;;;;;5091369;28;20028;-84
2021/01/05 11:59:56;;;;;;;36.78;19.92;;;3.90;90.00;;;;;;5093784;28;20051;-85
2021/01/05 12:02:21;;;;;;;39.25;21.05;;;3.90;89.70;;;;;;5076713;28;20650;-84
2021/01/05 12:04:47;;;;;;;34.13;19.90;;;3.90;89.60;;;;;;5076213;28;20032;-84
2021/01/05 12:07:13;;;;;;;31.50;18.48;;;3.80;89.80;;;;;;5059568;28;20031;-84
2021/01/05 12:09:38;;;;;;;33.70;19.17;;;3.80;89.90;;;;;;5059945;28;20480;-84
2021/01/05 12:12:08;;;;;;;33.65;19.40;;;3.80;89.90;;;;;;5059855;28;20048;-84
2021/01/05 12:14:34;;;;;;;32.38;18.15;;;3.80;90.00;;;;;;5075976;28;20016;-84
2021/01/05 12:17:02;;;;;;;35.28;19.75;;;3.80;90.00;;;;;;5076343;28;20081;-84
2021/01/05 12:19:36;;;;;;;31.65;18.63;;;3.80;90.00;;;;;;5057460;28;20097;-83
2021/01/05 12:22:05;;;;;;;31.27;17.08;;;3.80;89.60;;;;;;5089136;28;20040;-85
2021/01/05 12:24:33;;;;;;;29.27;16.95;;;3.80;89.60;;;;;;5076161;28;20067;-85
2021/01/05 12:27:00;;;;;;;30.55;17.50;;;3.80;89.80;;;;;;5075920;28;20032;-85
2021/01/05 12:29:30;;;;;;;43.63;22.08;;;3.90;89.80;;;;;;5076502;28;20024;-87
2021/01/05 12:31:58;;;;;;;54.17;28.35;;;3.90;89.50;;;;;;5076638;28;20026;-86
2021/01/05 12:34:26;;;;;;;36.53;19.50;;;3.80;89.30;;;;;;5094335;28;20115;-86
2021/01/05 12:36:53;;;;;;;30.33;18.48;;;3.80;89.50;;;;;;5076724;28;20119;-86
2021/01/05 12:39:22;;;;;;;29.17;17.15;;;3.80;89.70;;;;;;5059732;28;20025;-85
2021/01/05 12:41:48;;;;;;;27.83;17.33;;;3.70;89.80;;;;;;5094679;28;20024;-86
2021/01/05 12:44:17;;;;;;;29.92;17.60;;;3.80;90.00;;;;;;5076892;28;20055;-86
2021/01/05 12:46:43;;;;;;;30.05;17.38;;;3.80;90.00;;;;;;5076538;28;20480;-86
2021/01/05 12:49:11;;;;;;;28.90;16.42;;;3.80;90.00;;;;;;5076324;28;20028;-86
2021/01/05 12:51:39;;;;;;;30.50;17.33;;;3.80;90.00;;;;;;5076159;28;20024;-86